sensor_id;sensor_type;location;lat;lon;timestamp;P1;durP1;ratioP1;P2;durP2;ratioP2
6372;SDS011;3219;51.362;7.074;2023-04-24T00:02:20;1.83;;;1.05;;
6372;SDS011;3219;51.362;7.074;2023-04-24T00:04:48;1.90;;;1.05;;
6372;SDS011;3219;51.362;7.074;2023-04-24T00:07:14;2.33;;;1.48;;
6372;SDS011;3219;51.362;7.074;2023-04-24T00:09:42;2.15;;;2.00;;
6372;SDS011;3219;51.362;7.074;2023-04-24T00:12:08;2.40;;;1.52;;
6372;SDS011;3219;51.362;7.074;2023-04-24T00:14:35;1.52;;;1.42;;
6372;SDS011;3219;51.362;7.074;2023-04-24T00:17:04;1.90;;;0.93;;
6372;SDS011;3219;51.362;7.074;2023-04-24T00:19:31;2.67;;;2.47;;
6372;SDS011;3219;51.362;7.074;2023-04-24T00:21:57;1.95;;;1.85;;
6372;SDS011;3219;51.362;7.074;2023-04-24T00:24:24;1.92;;;1.83;;
6372;SDS011;3219;51.362;7.074;2023-04-24T00:26:51;2.15;;;1.75;;
6372;SDS011;3219;51.362;7.074;2023-04-24T00:29:18;2.50;;;1.55;;
6372;SDS011;3219;51.362;7.074;2023-04-24T00:31:44;2.08;;;1.67;;
6372;SDS011;3219;51.362;7.074;2023-04-24T00:34:13;2.47;;;1.65;;
6372;SDS011;3219;51.362;7.074;2023-04-24T00:36:39;1.67;;;1.52;;
6372;SDS011;3219;51.362;7.074;2023-04-24T00:39:06;1.40;;;1.20;;
6372;SDS011;3219;51.362;7.074;2023-04-24T00:41:33;3.17;;;1.92;;
6372;SDS011;3219;51.362;7.074;2023-04-24T00:44:01;1.58;;;1.40;;
6372;SDS011;3219;51.362;7.074;2023-04-24T00:46:27;1.88;;;1.67;;
6372;SDS011;3219;51.362;7.074;2023-04-24T00:48:55;2.53;;;2.05;;
6372;SDS011;3219;51.362;7.074;2023-04-24T00:51:23;2.50;;;2.05;;
6372;SDS011;3219;51.362;7.074;2023-04-24T00:53:50;3.28;;;3.08;;
6372;SDS011;3219;51.362;7.074;2023-04-24T00:56:17;1.83;;;1.67;;
6372;SDS011;3219;51.362;7.074;2023-04-24T00:58:44;2.08;;;1.98;;
6372;SDS011;3219;51.362;7.074;2023-04-24T01:01:11;3.90;;;2.05;;
6372;SDS011;3219;51.362;7.074;2023-04-24T01:03:39;2.15;;;1.95;;
6372;SDS011;3219;51.362;7.074;2023-04-24T01:06:06;3.30;;;2.28;;
6372;SDS011;3219;51.362;7.074;2023-04-24T01:08:35;2.35;;;1.90;;
6372;SDS011;3219;51.362;7.074;2023-04-24T01:11:03;3.05;;;2.13;;
6372;SDS011;3219;51.362;7.074;2023-04-24T01:13:31;2.10;;;1.98;;
6372;SDS011;3219;51.362;7.074;2023-04-24T01:15:58;2.97;;;2.55;;
6372;SDS011;3219;51.362;7.074;2023-04-24T01:18:25;3.28;;;2.53;;
6372;SDS011;3219;51.362;7.074;2023-04-24T01:20:53;2.28;;;2.08;;
6372;SDS011;3219;51.362;7.074;2023-04-24T01:23:24;2.40;;;2.20;;
6372;SDS011;3219;51.362;7.074;2023-04-24T01:25:51;2.80;;;2.25;;
6372;SDS011;3219;51.362;7.074;2023-04-24T01:28:18;2.17;;;1.88;;
6372;SDS011;3219;51.362;7.074;2023-04-24T01:30:45;2.75;;;2.53;;
6372;SDS011;3219;51.362;7.074;2023-04-24T01:33:12;3.05;;;2.22;;
6372;SDS011;3219;51.362;7.074;2023-04-24T01:35:39;3.05;;;2.33;;
6372;SDS011;3219;51.362;7.074;2023-04-24T01:38:06;2.28;;;2.08;;
6372;SDS011;3219;51.362;7.074;2023-04-24T01:40:34;2.50;;;2.30;;
6372;SDS011;3219;51.362;7.074;2023-04-24T01:43:01;3.75;;;2.35;;
6372;SDS011;3219;51.362;7.074;2023-04-24T01:45:28;3.00;;;2.80;;
6372;SDS011;3219;51.362;7.074;2023-04-24T01:47:55;4.30;;;3.97;;
6372;SDS011;3219;51.362;7.074;2023-04-24T01:50:22;3.13;;;2.65;;
6372;SDS011;3219;51.362;7.074;2023-04-24T01:52:49;3.47;;;2.65;;
6372;SDS011;3219;51.362;7.074;2023-04-24T01:55:15;5.20;;;4.40;;
6372;SDS011;3219;51.362;7.074;2023-04-24T01:57:43;4.32;;;3.90;;
6372;SDS011;3219;51.362;7.074;2023-04-24T02:00:11;5.45;;;3.80;;
6372;SDS011;3219;51.362;7.074;2023-04-24T02:02:38;5.20;;;4.70;;
6372;SDS011;3219;51.362;7.074;2023-04-24T02:05:06;7.38;;;5.45;;
6372;SDS011;3219;51.362;7.074;2023-04-24T02:07:33;6.70;;;4.68;;
6372;SDS011;3219;51.362;7.074;2023-04-24T02:10:00;7.63;;;5.78;;
6372;SDS011;3219;51.362;7.074;2023-04-24T02:12:29;7.72;;;5.82;;
6372;SDS011;3219;51.362;7.074;2023-04-24T02:14:57;8.63;;;5.13;;
6372;SDS011;3219;51.362;7.074;2023-04-24T02:17:24;7.05;;;5.15;;
6372;SDS011;3219;51.362;7.074;2023-04-24T02:19:51;10.75;;;4.93;;
6372;SDS011;3219;51.362;7.074;2023-04-24T02:22:18;6.50;;;4.80;;
6372;SDS011;3219;51.362;7.074;2023-04-24T02:24:45;6.15;;;4.93;;
6372;SDS011;3219;51.362;7.074;2023-04-24T02:27:12;8.35;;;5.45;;
6372;SDS011;3219;51.362;7.074;2023-04-24T02:29:39;8.80;;;6.18;;
6372;SDS011;3219;51.362;7.074;2023-04-24T02:32:08;7.10;;;5.43;;
6372;SDS011;3219;51.362;7.074;2023-04-24T02:34:36;9.10;;;6.22;;
6372;SDS011;3219;51.362;7.074;2023-04-24T02:37:03;9.32;;;5.35;;
6372;SDS011;3219;51.362;7.074;2023-04-24T02:39:30;8.27;;;5.70;;
6372;SDS011;3219;51.362;7.074;2023-04-24T02:41:57;7.95;;;5.50;;
6372;SDS011;3219;51.362;7.074;2023-04-24T02:44:24;9.23;;;6.47;;
6372;SDS011;3219;51.362;7.074;2023-04-24T02:46:51;8.23;;;5.47;;
6372;SDS011;3219;51.362;7.074;2023-04-24T02:49:19;7.95;;;6.80;;
6372;SDS011;3219;51.362;7.074;2023-04-24T02:51:46;9.23;;;6.32;;
6372;SDS011;3219;51.362;7.074;2023-04-24T02:54:13;9.88;;;5.55;;
6372;SDS011;3219;51.362;7.074;2023-04-24T02:56:39;10.85;;;7.53;;
6372;SDS011;3219;51.362;7.074;2023-04-24T02:59:06;8.70;;;7.10;;
6372;SDS011;3219;51.362;7.074;2023-04-24T03:01:33;12.15;;;8.13;;
6372;SDS011;3219;51.362;7.074;2023-04-24T03:04:00;11.07;;;7.60;;
6372;SDS011;3219;51.362;7.074;2023-04-24T03:06:28;10.30;;;6.82;;
6372;SDS011;3219;51.362;7.074;2023-04-24T03:08:56;10.73;;;7.15;;
6372;SDS011;3219;51.362;7.074;2023-04-24T03:11:23;10.23;;;7.72;;
6372;SDS011;3219;51.362;7.074;2023-04-24T03:13:50;11.85;;;7.70;;
6372;SDS011;3219;51.362;7.074;2023-04-24T03:16:16;11.35;;;8.05;;
6372;SDS011;3219;51.362;7.074;2023-04-24T03:18:43;9.68;;;7.60;;
6372;SDS011;3219;51.362;7.074;2023-04-24T03:21:10;9.88;;;7.72;;
6372;SDS011;3219;51.362;7.074;2023-04-24T03:23:39;9.65;;;6.93;;
6372;SDS011;3219;51.362;7.074;2023-04-24T03:26:06;10.85;;;7.57;;
6372;SDS011;3219;51.362;7.074;2023-04-24T03:28:32;12.05;;;8.07;;
6372;SDS011;3219;51.362;7.074;2023-04-24T03:30:59;14.02;;;9.10;;
6372;SDS011;3219;51.362;7.074;2023-04-24T03:33:26;10.75;;;7.63;;
6372;SDS011;3219;51.362;7.074;2023-04-24T03:35:52;11.73;;;8.07;;
6372;SDS011;3219;51.362;7.074;2023-04-24T03:38:19;12.48;;;7.88;;
6372;SDS011;3219;51.362;7.074;2023-04-24T03:40:47;12.98;;;8.07;;
6372;SDS011;3219;51.362;7.074;2023-04-24T03:43:14;12.05;;;8.02;;
6372;SDS011;3219;51.362;7.074;2023-04-24T03:45:41;13.45;;;8.38;;
6372;SDS011;3219;51.362;7.074;2023-04-24T03:48:08;14.80;;;8.98;;
6372;SDS011;3219;51.362;7.074;2023-04-24T03:50:34;12.65;;;8.25;;
6372;SDS011;3219;51.362;7.074;2023-04-24T03:53:01;11.43;;;8.63;;
6372;SDS011;3219;51.362;7.074;2023-04-24T03:55:28;14.10;;;7.95;;
6372;SDS011;3219;51.362;7.074;2023-04-24T03:57:56;9.25;;;7.43;;
6372;SDS011;3219;51.362;7.074;2023-04-24T04:00:23;12.68;;;7.97;;
6372;SDS011;3219;51.362;7.074;2023-04-24T04:02:51;11.30;;;9.05;;
6372;SDS011;3219;51.362;7.074;2023-04-24T04:05:17;13.50;;;7.88;;
6372;SDS011;3219;51.362;7.074;2023-04-24T04:07:44;10.77;;;7.47;;
6372;SDS011;3219;51.362;7.074;2023-04-24T04:10:11;12.43;;;8.45;;
6372;SDS011;3219;51.362;7.074;2023-04-24T04:12:38;11.85;;;8.68;;
6372;SDS011;3219;51.362;7.074;2023-04-24T04:15:06;10.77;;;7.90;;
6372;SDS011;3219;51.362;7.074;2023-04-24T04:17:33;10.35;;;7.60;;
6372;SDS011;3219;51.362;7.074;2023-04-24T04:20:00;11.88;;;9.82;;
6372;SDS011;3219;51.362;7.074;2023-04-24T04:22:30;12.77;;;8.75;;
6372;SDS011;3219;51.362;7.074;2023-04-24T04:24:57;10.85;;;7.95;;
6372;SDS011;3219;51.362;7.074;2023-04-24T04:27:24;12.90;;;9.43;;
6372;SDS011;3219;51.362;7.074;2023-04-24T04:29:51;15.55;;;9.30;;
6372;SDS011;3219;51.362;7.074;2023-04-24T04:32:19;13.57;;;9.23;;
6372;SDS011;3219;51.362;7.074;2023-04-24T04:34:46;14.70;;;8.27;;
6372;SDS011;3219;51.362;7.074;2023-04-24T04:37:14;11.80;;;8.40;;
6372;SDS011;3219;51.362;7.074;2023-04-24T04:39:41;11.95;;;8.68;;
6372;SDS011;3219;51.362;7.074;2023-04-24T04:42:08;12.55;;;9.25;;
6372;SDS011;3219;51.362;7.074;2023-04-24T04:44:34;9.93;;;8.18;;
6372;SDS011;3219;51.362;7.074;2023-04-24T04:47:03;12.32;;;8.80;;
6372;SDS011;3219;51.362;7.074;2023-04-24T04:49:31;12.65;;;8.70;;
6372;SDS011;3219;51.362;7.074;2023-04-24T04:51:59;11.30;;;8.07;;
6372;SDS011;3219;51.362;7.074;2023-04-24T04:54:25;11.10;;;7.90;;
6372;SDS011;3219;51.362;7.074;2023-04-24T04:56:52;13.38;;;8.63;;
6372;SDS011;3219;51.362;7.074;2023-04-24T04:59:19;11.18;;;7.57;;
6372;SDS011;3219;51.362;7.074;2023-04-24T05:01:45;12.63;;;7.80;;
6372;SDS011;3219;51.362;7.074;2023-04-24T05:04:12;9.60;;;7.15;;
6372;SDS011;3219;51.362;7.074;2023-04-24T05:06:40;12.00;;;8.30;;
6372;SDS011;3219;51.362;7.074;2023-04-24T05:09:07;10.93;;;7.18;;
6372;SDS011;3219;51.362;7.074;2023-04-24T05:11:34;11.07;;;7.10;;
6372;SDS011;3219;51.362;7.074;2023-04-24T05:14:00;11.95;;;7.40;;
6372;SDS011;3219;51.362;7.074;2023-04-24T05:16:27;9.65;;;7.40;;
6372;SDS011;3219;51.362;7.074;2023-04-24T05:18:54;12.38;;;8.38;;
6372;SDS011;3219;51.362;7.074;2023-04-24T05:21:21;11.38;;;8.82;;
6372;SDS011;3219;51.362;7.074;2023-04-24T05:23:49;9.93;;;8.13;;
6372;SDS011;3219;51.362;7.074;2023-04-24T05:26:16;10.50;;;8.30;;
6372;SDS011;3219;51.362;7.074;2023-04-24T05:28:42;9.55;;;7.00;;
6372;SDS011;3219;51.362;7.074;2023-04-24T05:31:09;12.18;;;7.93;;
6372;SDS011;3219;51.362;7.074;2023-04-24T05:33:37;10.48;;;8.35;;
6372;SDS011;3219;51.362;7.074;2023-04-24T05:36:04;11.02;;;8.02;;
6372;SDS011;3219;51.362;7.074;2023-04-24T05:38:32;11.55;;;7.68;;
6372;SDS011;3219;51.362;7.074;2023-04-24T05:41:00;9.93;;;8.18;;
6372;SDS011;3219;51.362;7.074;2023-04-24T05:43:27;16.50;;;9.60;;
6372;SDS011;3219;51.362;7.074;2023-04-24T05:45:54;10.23;;;8.40;;
6372;SDS011;3219;51.362;7.074;2023-04-24T05:48:21;8.60;;;6.43;;
6372;SDS011;3219;51.362;7.074;2023-04-24T05:50:48;11.00;;;8.10;;
6372;SDS011;3219;51.362;7.074;2023-04-24T05:53:14;11.02;;;6.97;;
6372;SDS011;3219;51.362;7.074;2023-04-24T05:55:41;8.68;;;6.75;;
6372;SDS011;3219;51.362;7.074;2023-04-24T05:58:09;9.20;;;6.00;;
6372;SDS011;3219;51.362;7.074;2023-04-24T06:00:36;9.43;;;6.63;;
6372;SDS011;3219;51.362;7.074;2023-04-24T06:03:04;9.68;;;7.80;;
6372;SDS011;3219;51.362;7.074;2023-04-24T06:05:31;9.38;;;7.03;;
6372;SDS011;3219;51.362;7.074;2023-04-24T06:07:58;8.98;;;6.22;;
6372;SDS011;3219;51.362;7.074;2023-04-24T06:10:25;9.32;;;6.97;;
6372;SDS011;3219;51.362;7.074;2023-04-24T06:12:52;9.15;;;6.53;;
6372;SDS011;3219;51.362;7.074;2023-04-24T06:15:22;8.98;;;7.28;;
6372;SDS011;3219;51.362;7.074;2023-04-24T06:17:49;9.43;;;7.30;;
6372;SDS011;3219;51.362;7.074;2023-04-24T06:20:16;10.45;;;7.88;;
6372;SDS011;3219;51.362;7.074;2023-04-24T06:22:42;9.35;;;7.63;;
6372;SDS011;3219;51.362;7.074;2023-04-24T06:25:09;9.00;;;7.07;;
6372;SDS011;3219;51.362;7.074;2023-04-24T06:27:36;7.75;;;6.15;;
6372;SDS011;3219;51.362;7.074;2023-04-24T06:30:03;9.10;;;6.35;;
6372;SDS011;3219;51.362;7.074;2023-04-24T06:32:31;9.50;;;6.80;;
6372;SDS011;3219;51.362;7.074;2023-04-24T06:34:58;10.13;;;6.30;;
6372;SDS011;3219;51.362;7.074;2023-04-24T06:37:25;9.68;;;7.88;;
6372;SDS011;3219;51.362;7.074;2023-04-24T06:39:52;9.82;;;6.75;;
6372;SDS011;3219;51.362;7.074;2023-04-24T06:42:19;8.70;;;6.60;;
6372;SDS011;3219;51.362;7.074;2023-04-24T06:44:47;10.48;;;7.57;;
6372;SDS011;3219;51.362;7.074;2023-04-24T06:47:13;9.10;;;6.13;;
6372;SDS011;3219;51.362;7.074;2023-04-24T06:49:41;10.20;;;6.68;;
6372;SDS011;3219;51.362;7.074;2023-04-24T06:52:08;7.68;;;6.47;;
6372;SDS011;3219;51.362;7.074;2023-04-24T06:54:35;7.95;;;5.82;;
6372;SDS011;3219;51.362;7.074;2023-04-24T06:57:02;7.82;;;6.30;;
6372;SDS011;3219;51.362;7.074;2023-04-24T06:59:29;7.18;;;5.07;;
6372;SDS011;3219;51.362;7.074;2023-04-24T07:01:56;7.82;;;5.55;;
6372;SDS011;3219;51.362;7.074;2023-04-24T07:04:23;6.53;;;5.78;;
6372;SDS011;3219;51.362;7.074;2023-04-24T07:06:51;6.70;;;6.00;;
6372;SDS011;3219;51.362;7.074;2023-04-24T07:09:20;6.22;;;5.63;;
6372;SDS011;3219;51.362;7.074;2023-04-24T07:11:48;4.85;;;4.15;;
6372;SDS011;3219;51.362;7.074;2023-04-24T07:14:15;5.43;;;4.07;;
6372;SDS011;3219;51.362;7.074;2023-04-24T07:16:42;5.97;;;3.70;;
6372;SDS011;3219;51.362;7.074;2023-04-24T07:19:10;6.03;;;4.72;;
6372;SDS011;3219;51.362;7.074;2023-04-24T07:21:37;7.65;;;4.88;;
6372;SDS011;3219;51.362;7.074;2023-04-24T07:24:05;5.45;;;4.57;;
6372;SDS011;3219;51.362;7.074;2023-04-24T07:26:34;5.15;;;4.65;;
6372;SDS011;3219;51.362;7.074;2023-04-24T07:29:01;5.00;;;4.15;;
6372;SDS011;3219;51.362;7.074;2023-04-24T07:31:27;4.30;;;3.03;;
6372;SDS011;3219;51.362;7.074;2023-04-24T07:33:55;3.88;;;3.47;;
6372;SDS011;3219;51.362;7.074;2023-04-24T07:36:23;3.33;;;2.83;;
6372;SDS011;3219;51.362;7.074;2023-04-24T07:38:51;4.10;;;3.70;;
6372;SDS011;3219;51.362;7.074;2023-04-24T07:41:19;3.92;;;2.95;;
6372;SDS011;3219;51.362;7.074;2023-04-24T07:43:46;2.65;;;2.35;;
6372;SDS011;3219;51.362;7.074;2023-04-24T07:46:13;2.70;;;2.47;;
6372;SDS011;3219;51.362;7.074;2023-04-24T07:48:40;4.00;;;2.90;;
6372;SDS011;3219;51.362;7.074;2023-04-24T07:51:06;2.83;;;2.30;;
6372;SDS011;3219;51.362;7.074;2023-04-24T07:53:35;3.35;;;2.58;;
6372;SDS011;3219;51.362;7.074;2023-04-24T07:56:01;4.38;;;3.08;;
6372;SDS011;3219;51.362;7.074;2023-04-24T07:58:29;3.08;;;2.78;;
6372;SDS011;3219;51.362;7.074;2023-04-24T08:00:56;2.50;;;1.92;;
6372;SDS011;3219;51.362;7.074;2023-04-24T08:03:23;1.52;;;1.40;;
6372;SDS011;3219;51.362;7.074;2023-04-24T08:05:50;1.75;;;1.65;;
6372;SDS011;3219;51.362;7.074;2023-04-24T08:08:16;1.75;;;1.33;;
6372;SDS011;3219;51.362;7.074;2023-04-24T08:10:43;1.67;;;1.58;;
6372;SDS011;3219;51.362;7.074;2023-04-24T08:13:10;1.55;;;1.45;;
6372;SDS011;3219;51.362;7.074;2023-04-24T08:15:38;1.17;;;0.95;;
6372;SDS011;3219;51.362;7.074;2023-04-24T08:18:05;1.60;;;1.50;;
6372;SDS011;3219;51.362;7.074;2023-04-24T08:20:32;1.63;;;1.52;;
6372;SDS011;3219;51.362;7.074;2023-04-24T08:22:59;0.88;;;0.88;;
6372;SDS011;3219;51.362;7.074;2023-04-24T08:25:26;1.42;;;1.35;;
6372;SDS011;3219;51.362;7.074;2023-04-24T08:27:53;2.13;;;1.33;;
6372;SDS011;3219;51.362;7.074;2023-04-24T08:30:20;1.00;;;1.00;;
6372;SDS011;3219;51.362;7.074;2023-04-24T08:32:48;2.67;;;2.03;;
6372;SDS011;3219;51.362;7.074;2023-04-24T08:35:15;1.42;;;1.33;;
6372;SDS011;3219;51.362;7.074;2023-04-24T08:37:42;2.25;;;2.05;;
6372;SDS011;3219;51.362;7.074;2023-04-24T08:40:11;1.38;;;1.35;;
6372;SDS011;3219;51.362;7.074;2023-04-24T08:42:39;1.63;;;1.52;;
6372;SDS011;3219;51.362;7.074;2023-04-24T08:45:08;1.27;;;1.17;;
6372;SDS011;3219;51.362;7.074;2023-04-24T08:47:36;1.65;;;1.55;;
6372;SDS011;3219;51.362;7.074;2023-04-24T08:50:06;2.53;;;1.17;;
6372;SDS011;3219;51.362;7.074;2023-04-24T08:52:34;2.28;;;1.67;;
6372;SDS011;3219;51.362;7.074;2023-04-24T08:55:01;1.77;;;1.67;;
6372;SDS011;3219;51.362;7.074;2023-04-24T08:57:28;1.42;;;1.17;;
6372;SDS011;3219;51.362;7.074;2023-04-24T08:59:57;1.63;;;1.52;;
6372;SDS011;3219;51.362;7.074;2023-04-24T09:02:24;1.25;;;1.15;;
6372;SDS011;3219;51.362;7.074;2023-04-24T09:04:52;2.65;;;1.55;;
6372;SDS011;3219;51.362;7.074;2023-04-24T09:07:20;1.88;;;1.65;;
6372;SDS011;3219;51.362;7.074;2023-04-24T09:09:50;2.40;;;1.50;;
6372;SDS011;3219;51.362;7.074;2023-04-24T09:12:17;1.23;;;0.98;;
6372;SDS011;3219;51.362;7.074;2023-04-24T09:14:45;0.85;;;0.63;;
6372;SDS011;3219;51.362;7.074;2023-04-24T09:17:12;0.82;;;0.82;;
6372;SDS011;3219;51.362;7.074;2023-04-24T09:19:39;1.25;;;1.15;;
6372;SDS011;3219;51.362;7.074;2023-04-24T09:22:06;3.00;;;2.90;;
6372;SDS011;3219;51.362;7.074;2023-04-24T09:24:35;1.58;;;1.48;;
6372;SDS011;3219;51.362;7.074;2023-04-24T09:27:02;1.45;;;1.05;;
6372;SDS011;3219;51.362;7.074;2023-04-24T09:29:30;2.03;;;1.63;;
6372;SDS011;3219;51.362;7.074;2023-04-24T09:31:57;3.65;;;3.35;;
6372;SDS011;3219;51.362;7.074;2023-04-24T09:34:25;3.58;;;3.28;;
6372;SDS011;3219;51.362;7.074;2023-04-24T09:36:53;3.70;;;3.40;;
6372;SDS011;3219;51.362;7.074;2023-04-24T09:39:20;4.22;;;3.55;;
6372;SDS011;3219;51.362;7.074;2023-04-24T09:41:49;3.47;;;3.17;;
6372;SDS011;3219;51.362;7.074;2023-04-24T09:44:16;3.53;;;2.92;;
6372;SDS011;3219;51.362;7.074;2023-04-24T09:46:45;3.78;;;3.42;;
6372;SDS011;3219;51.362;7.074;2023-04-24T09:49:16;4.70;;;3.35;;
6372;SDS011;3219;51.362;7.074;2023-04-24T09:51:48;3.55;;;3.00;;
6372;SDS011;3219;51.362;7.074;2023-04-24T09:54:15;5.28;;;3.65;;
6372;SDS011;3219;51.362;7.074;2023-04-24T09:56:43;6.93;;;3.22;;
6372;SDS011;3219;51.362;7.074;2023-04-24T09:59:13;4.28;;;2.88;;
6372;SDS011;3219;51.362;7.074;2023-04-24T10:01:40;3.97;;;3.30;;
6372;SDS011;3219;51.362;7.074;2023-04-24T10:04:18;4.72;;;3.53;;
6372;SDS011;3219;51.362;7.074;2023-04-24T10:06:46;3.83;;;3.22;;
6372;SDS011;3219;51.362;7.074;2023-04-24T10:09:15;3.45;;;3.15;;
6372;SDS011;3219;51.362;7.074;2023-04-24T10:11:43;4.88;;;3.22;;
6372;SDS011;3219;51.362;7.074;2023-04-24T10:14:13;5.78;;;3.35;;
6372;SDS011;3219;51.362;7.074;2023-04-24T10:16:42;5.53;;;3.25;;
6372;SDS011;3219;51.362;7.074;2023-04-24T10:19:12;5.13;;;4.57;;
6372;SDS011;3219;51.362;7.074;2023-04-24T10:21:40;4.55;;;3.88;;
6372;SDS011;3219;51.362;7.074;2023-04-24T10:24:11;4.88;;;3.78;;
6372;SDS011;3219;51.362;7.074;2023-04-24T10:26:38;7.30;;;3.35;;
6372;SDS011;3219;51.362;7.074;2023-04-24T10:29:06;6.43;;;3.72;;
6372;SDS011;3219;51.362;7.074;2023-04-24T10:31:38;6.90;;;4.07;;
6372;SDS011;3219;51.362;7.074;2023-04-24T10:34:07;6.63;;;4.90;;
6372;SDS011;3219;51.362;7.074;2023-04-24T10:36:35;7.63;;;6.25;;
6372;SDS011;3219;51.362;7.074;2023-04-24T10:39:07;9.32;;;5.28;;
6372;SDS011;3219;51.362;7.074;2023-04-24T10:41:37;10.55;;;4.82;;
6372;SDS011;3219;51.362;7.074;2023-04-24T10:44:05;8.73;;;5.15;;
6372;SDS011;3219;51.362;7.074;2023-04-24T10:46:32;8.30;;;4.05;;
6372;SDS011;3219;51.362;7.074;2023-04-24T10:49:01;7.22;;;4.03;;
6372;SDS011;3219;51.362;7.074;2023-04-24T10:51:43;6.72;;;4.90;;
6372;SDS011;3219;51.362;7.074;2023-04-24T11:00:11;8.02;;;5.43;;
6372;SDS011;3219;51.362;7.074;2023-04-24T11:02:41;11.88;;;5.53;;
6372;SDS011;3219;51.362;7.074;2023-04-24T11:05:16;7.60;;;5.00;;
6372;SDS011;3219;51.362;7.074;2023-04-24T11:10:39;8.05;;;5.00;;
6372;SDS011;3219;51.362;7.074;2023-04-24T11:13:07;10.82;;;5.93;;
6372;SDS011;3219;51.362;7.074;2023-04-24T11:15:34;11.95;;;5.75;;
6372;SDS011;3219;51.362;7.074;2023-04-24T11:18:01;9.23;;;5.32;;
6372;SDS011;3219;51.362;7.074;2023-04-24T11:20:29;11.90;;;5.43;;
6372;SDS011;3219;51.362;7.074;2023-04-24T11:22:58;10.02;;;5.72;;
6372;SDS011;3219;51.362;7.074;2023-04-24T11:25:30;11.80;;;6.25;;
6372;SDS011;3219;51.362;7.074;2023-04-24T11:28:02;10.80;;;5.97;;
6372;SDS011;3219;51.362;7.074;2023-04-24T11:30:30;10.45;;;5.28;;
6372;SDS011;3219;51.362;7.074;2023-04-24T11:33:01;10.18;;;4.82;;
6372;SDS011;3219;51.362;7.074;2023-04-24T11:35:30;8.77;;;4.13;;
6372;SDS011;3219;51.362;7.074;2023-04-24T11:38:02;7.50;;;4.78;;
6372;SDS011;3219;51.362;7.074;2023-04-24T11:40:30;8.98;;;4.40;;
6372;SDS011;3219;51.362;7.074;2023-04-24T11:42:59;8.27;;;5.45;;
6372;SDS011;3219;51.362;7.074;2023-04-24T11:45:27;9.30;;;5.10;;
6372;SDS011;3219;51.362;7.074;2023-04-24T11:47:55;11.27;;;4.80;;
6372;SDS011;3219;51.362;7.074;2023-04-24T11:50:22;9.60;;;4.68;;
6372;SDS011;3219;51.362;7.074;2023-04-24T11:52:54;10.63;;;5.30;;
6372;SDS011;3219;51.362;7.074;2023-04-24T11:55:25;6.63;;;4.45;;
6372;SDS011;3219;51.362;7.074;2023-04-24T11:57:53;6.82;;;4.18;;
6372;SDS011;3219;51.362;7.074;2023-04-24T12:00:22;6.55;;;3.72;;
6372;SDS011;3219;51.362;7.074;2023-04-24T12:02:50;10.02;;;3.80;;
6372;SDS011;3219;51.362;7.074;2023-04-24T12:05:20;9.77;;;3.75;;
6372;SDS011;3219;51.362;7.074;2023-04-24T12:07:48;11.07;;;4.93;;
6372;SDS011;3219;51.362;7.074;2023-04-24T12:10:20;6.97;;;3.42;;
6372;SDS011;3219;51.362;7.074;2023-04-24T12:12:48;6.97;;;3.53;;
6372;SDS011;3219;51.362;7.074;2023-04-24T12:15:16;7.85;;;3.80;;
6372;SDS011;3219;51.362;7.074;2023-04-24T12:17:44;7.03;;;4.05;;
6372;SDS011;3219;51.362;7.074;2023-04-24T12:20:12;6.93;;;3.15;;
6372;SDS011;3219;51.362;7.074;2023-04-24T12:22:43;6.22;;;2.88;;
6372;SDS011;3219;51.362;7.074;2023-04-24T12:25:11;8.23;;;3.20;;
6372;SDS011;3219;51.362;7.074;2023-04-24T12:27:40;6.60;;;3.85;;
6372;SDS011;3219;51.362;7.074;2023-04-24T12:30:10;4.63;;;3.20;;
6372;SDS011;3219;51.362;7.074;2023-04-24T12:32:40;4.28;;;2.20;;
6372;SDS011;3219;51.362;7.074;2023-04-24T12:35:08;8.50;;;3.38;;
6372;SDS011;3219;51.362;7.074;2023-04-24T12:37:35;8.88;;;3.60;;
6372;SDS011;3219;51.362;7.074;2023-04-24T12:40:03;5.55;;;3.03;;
6372;SDS011;3219;51.362;7.074;2023-04-24T12:42:31;5.95;;;2.95;;
6372;SDS011;3219;51.362;7.074;2023-04-24T12:45:00;8.15;;;2.78;;
6372;SDS011;3219;51.362;7.074;2023-04-24T12:47:29;7.13;;;2.75;;
6372;SDS011;3219;51.362;7.074;2023-04-24T12:49:56;4.15;;;2.67;;
6372;SDS011;3219;51.362;7.074;2023-04-24T12:52:23;6.18;;;3.72;;
6372;SDS011;3219;51.362;7.074;2023-04-24T12:54:52;8.43;;;3.38;;
6372;SDS011;3219;51.362;7.074;2023-04-24T12:57:20;4.97;;;2.70;;
6372;SDS011;3219;51.362;7.074;2023-04-24T12:59:46;5.55;;;3.67;;
6372;SDS011;3219;51.362;7.074;2023-04-24T13:02:14;6.47;;;3.63;;
6372;SDS011;3219;51.362;7.074;2023-04-24T13:04:43;6.68;;;2.65;;
6372;SDS011;3219;51.362;7.074;2023-04-24T13:07:11;6.57;;;3.97;;
6372;SDS011;3219;51.362;7.074;2023-04-24T13:09:38;6.53;;;4.18;;
6372;SDS011;3219;51.362;7.074;2023-04-24T13:12:05;6.55;;;3.00;;
6372;SDS011;3219;51.362;7.074;2023-04-24T13:14:32;5.88;;;3.15;;
6372;SDS011;3219;51.362;7.074;2023-04-24T13:16:59;5.55;;;2.63;;
6372;SDS011;3219;51.362;7.074;2023-04-24T13:19:27;6.07;;;2.28;;
6372;SDS011;3219;51.362;7.074;2023-04-24T13:21:55;6.47;;;3.30;;
6372;SDS011;3219;51.362;7.074;2023-04-24T13:24:24;4.18;;;2.28;;
6372;SDS011;3219;51.362;7.074;2023-04-24T13:26:51;5.45;;;2.47;;
6372;SDS011;3219;51.362;7.074;2023-04-24T13:29:17;5.57;;;2.67;;
6372;SDS011;3219;51.362;7.074;2023-04-24T13:31:45;4.63;;;3.08;;
6372;SDS011;3219;51.362;7.074;2023-04-24T13:34:12;2.70;;;1.70;;
6372;SDS011;3219;51.362;7.074;2023-04-24T13:36:40;5.93;;;2.85;;
6372;SDS011;3219;51.362;7.074;2023-04-24T13:39:07;6.28;;;2.78;;
6372;SDS011;3219;51.362;7.074;2023-04-24T13:41:34;3.85;;;2.55;;
6372;SDS011;3219;51.362;7.074;2023-04-24T13:44:01;2.38;;;2.10;;
6372;SDS011;3219;51.362;7.074;2023-04-24T13:46:28;3.35;;;2.13;;
6372;SDS011;3219;51.362;7.074;2023-04-24T13:48:55;3.42;;;2.33;;
6372;SDS011;3219;51.362;7.074;2023-04-24T13:51:21;3.67;;;2.47;;
6372;SDS011;3219;51.362;7.074;2023-04-24T13:53:50;4.63;;;2.08;;
6372;SDS011;3219;51.362;7.074;2023-04-24T13:56:16;2.80;;;2.42;;
6372;SDS011;3219;51.362;7.074;2023-04-24T13:58:43;4.03;;;1.73;;
6372;SDS011;3219;51.362;7.074;2023-04-24T14:01:10;4.70;;;1.60;;
6372;SDS011;3219;51.362;7.074;2023-04-24T14:03:37;4.43;;;2.58;;
6372;SDS011;3219;51.362;7.074;2023-04-24T14:06:04;2.78;;;1.95;;
6372;SDS011;3219;51.362;7.074;2023-04-24T14:08:31;2.60;;;1.95;;
6372;SDS011;3219;51.362;7.074;2023-04-24T14:10:59;4.13;;;2.38;;
6372;SDS011;3219;51.362;7.074;2023-04-24T14:13:26;4.53;;;2.38;;
6372;SDS011;3219;51.362;7.074;2023-04-24T14:15:53;2.50;;;2.15;;
6372;SDS011;3219;51.362;7.074;2023-04-24T14:18:20;4.93;;;1.67;;
6372;SDS011;3219;51.362;7.074;2023-04-24T14:20:47;3.13;;;1.48;;
6372;SDS011;3219;51.362;7.074;2023-04-24T14:23:13;1.77;;;1.33;;
6372;SDS011;3219;51.362;7.074;2023-04-24T14:25:41;1.73;;;1.05;;
6372;SDS011;3219;51.362;7.074;2023-04-24T14:28:10;2.20;;;2.00;;
6372;SDS011;3219;51.362;7.074;2023-04-24T14:30:36;3.88;;;1.98;;
6372;SDS011;3219;51.362;7.074;2023-04-24T14:33:05;4.97;;;2.72;;
6372;SDS011;3219;51.362;7.074;2023-04-24T14:35:32;4.38;;;1.58;;
6372;SDS011;3219;51.362;7.074;2023-04-24T14:38:00;2.08;;;1.88;;
6372;SDS011;3219;51.362;7.074;2023-04-24T14:40:27;2.45;;;2.13;;
6372;SDS011;3219;51.362;7.074;2023-04-24T14:42:54;3.28;;;2.25;;
6372;SDS011;3219;51.362;7.074;2023-04-24T14:45:23;1.88;;;1.77;;
6372;SDS011;3219;51.362;7.074;2023-04-24T14:47:50;2.35;;;2.15;;
6372;SDS011;3219;51.362;7.074;2023-04-24T14:50:17;3.35;;;2.25;;
6372;SDS011;3219;51.362;7.074;2023-04-24T14:52:43;2.42;;;1.80;;
6372;SDS011;3219;51.362;7.074;2023-04-24T14:55:10;2.75;;;1.55;;
6372;SDS011;3219;51.362;7.074;2023-04-24T14:57:37;2.22;;;1.85;;
6372;SDS011;3219;51.362;7.074;2023-04-24T15:00:05;2.00;;;1.52;;
6372;SDS011;3219;51.362;7.074;2023-04-24T15:02:35;1.75;;;1.40;;
6372;SDS011;3219;51.362;7.074;2023-04-24T15:05:06;3.53;;;1.20;;
6372;SDS011;3219;51.362;7.074;2023-04-24T15:07:34;2.75;;;1.85;;
6372;SDS011;3219;51.362;7.074;2023-04-24T15:10:01;2.17;;;1.35;;
6372;SDS011;3219;51.362;7.074;2023-04-24T15:12:28;1.52;;;1.25;;
6372;SDS011;3219;51.362;7.074;2023-04-24T15:14:55;2.75;;;1.30;;
6372;SDS011;3219;51.362;7.074;2023-04-24T15:17:23;2.72;;;2.13;;
6372;SDS011;3219;51.362;7.074;2023-04-24T15:19:51;3.20;;;1.63;;
6372;SDS011;3219;51.362;7.074;2023-04-24T15:22:18;2.38;;;1.25;;
6372;SDS011;3219;51.362;7.074;2023-04-24T15:24:45;2.88;;;1.75;;